Time;durP1;ratioP1;P1;durP2;ratioP2;P2;SDS_P1;SDS_P2;PMS_P1;PMS_P2;Temp;Humidity;BMP_temperature;BMP_pressure;BME280_temperature;BME280_humidity;BME280_pressure;Samples;Min_cycle;Max_cycle;Signal;HPM_P1;HPM_P2
2021/09/17 00:01:34;;;;;;;18.70;14.00;;;;;;;18.88;85.84;96123.66;1695648;84;21363;-82
2021/09/17 00:03:59;;;;;;;17.87;13.58;;;;;;;18.87;86.12;96118.11;1694847;84;21062;-82
2021/09/17 00:06:25;;;;;;;14.85;12.13;;;;;;;18.89;86.05;96113.92;1692028;84;21101;-83
2021/09/17 00:08:51;;;;;;;17.80;14.45;;;;;;;18.87;85.67;96115.48;1695189;84;21098;-82
2021/09/17 00:11:17;;;;;;;16.00;14.00;;;;;;;18.84;85.67;96119.88;1686093;83;21009;-82
2021/09/17 00:13:43;;;;;;;17.62;14.98;;;;;;;18.81;85.60;96118.25;1656991;85;21071;-82
2021/09/17 00:16:08;;;;;;;15.20;12.45;;;;;;;18.82;85.60;96118.53;1695042;83;20980;-83
2021/09/17 00:18:34;;;;;;;18.02;15.08;;;;;;;18.81;85.76;96120.88;1701545;83;21342;-82
2021/09/17 00:21:00;;;;;;;20.88;17.35;;;;;;;18.79;85.84;96114.55;1679272;84;20980;-82
2021/09/17 00:23:25;;;;;;;21.57;17.12;;;;;;;18.79;85.86;96112.44;1696517;84;21120;-83
2021/09/17 00:25:52;;;;;;;17.75;13.93;;;;;;;18.78;85.81;96113.47;1665871;84;21012;-82
2021/09/17 00:28:18;;;;;;;19.73;17.50;;;;;;;18.79;85.97;96107.17;1672364;84;21537;-82
2021/09/17 00:30:44;;;;;;;18.40;16.02;;;;;;;18.78;86.03;96108.20;1673636;84;21015;-82
2021/09/17 00:33:09;;;;;;;21.35;18.32;;;;;;;18.82;85.78;96105.38;1672717;85;21089;-82
2021/09/17 00:35:35;;;;;;;18.85;11.88;;;;;;;18.79;85.90;96102.70;1688606;84;21066;-82
2021/09/17 00:38:03;;;;;;;16.35;12.33;;;;;;;18.82;85.89;96101.42;1686148;84;21487;-82
2021/09/17 00:40:30;;;;;;;25.32;14.65;;;;;;;18.85;85.87;96103.05;1694787;84;21007;-82
2021/09/17 00:42:56;;;;;;;15.98;10.72;;;;;;;18.82;85.80;96091.69;1676229;84;20975;-82
2021/09/17 00:45:21;;;;;;;18.00;11.75;;;;;;;18.81;85.84;96091.41;1683404;83;21131;-82
2021/09/17 00:47:47;;;;;;;14.60;12.50;;;;;;;18.78;85.75;96085.31;1676763;84;21073;-82
2021/09/17 00:50:16;;;;;;;14.47;11.38;;;;;;;18.78;85.78;96084.00;1665440;84;20993;-82
2021/09/17 00:52:43;;;;;;;14.75;11.55;;;;;;;18.78;85.75;96076.63;1682246;84;21040;-82
2021/09/17 00:55:09;;;;;;;13.18;10.93;;;;;;;18.77;85.69;96075.03;1677896;84;21067;-82
2021/09/17 00:57:35;;;;;;;14.70;11.22;;;;;;;18.76;85.57;96076.87;1662438;85;21060;-82
2021/09/17 01:00:06;;;;;;;15.38;11.28;;;;;;;18.77;85.86;96068.45;1683300;84;21017;-82
2021/09/17 01:02:32;;;;;;;14.98;12.07;;;;;;;18.78;86.04;96066.09;1700536;83;21057;-82
2021/09/17 01:04:58;;;;;;;16.02;12.45;;;;;;;18.80;85.76;96067.45;1705984;83;20972;-82
2021/09/17 01:07:24;;;;;;;16.80;9.98;;;;;;;18.83;85.66;96059.58;1707125;83;21041;-82
2021/09/17 01:09:49;;;;;;;15.63;11.22;;;;;;;18.82;85.62;96057.98;1721760;83;21525;-82
2021/09/17 01:12:16;;;;;;;16.70;9.38;;;;;;;18.78;85.51;96057.68;1677705;84;21037;-82
2021/09/17 01:14:41;;;;;;;15.28;10.20;;;;;;;18.79;85.85;96044.80;1695719;84;21041;-82
2021/09/17 01:17:07;;;;;;;13.55;10.60;;;;;;;18.79;85.69;96046.11;1698760;84;21502;-82
2021/09/17 01:19:37;;;;;;;13.93;11.90;;;;;;;18.78;85.75;96044.52;1683859;84;21019;-82
2021/09/17 01:22:06;;;;;;;14.60;11.15;;;;;;;18.76;85.70;96036.59;1717728;83;21023;-82
2021/09/17 01:24:31;;;;;;;17.67;13.35;;;;;;;18.77;85.90;96034.23;1701836;84;21035;-82
2021/09/17 01:26:58;;;;;;;27.70;18.52;;;;;;;18.78;85.87;96034.52;1679914;84;21023;-82
2021/09/17 01:29:24;;;;;;;23.55;18.50;;;;;;;18.78;85.84;96027.94;1666948;84;21434;-82
2021/09/17 01:31:50;;;;;;;24.20;18.50;;;;;;;18.76;85.77;96020.28;1662173;85;21115;-83
2021/09/17 01:34:21;;;;;;;16.73;12.28;;;;;;;18.77;85.92;96014.50;1642250;86;21398;-82
2021/09/17 01:36:47;;;;;;;15.23;13.10;;;;;;;18.73;85.66;96005.50;1676093;85;21065;-83
2021/09/17 01:39:13;;;;;;;15.28;12.60;;;;;;;18.64;85.87;96004.30;1681024;84;21061;-82
2021/09/17 01:41:39;;;;;;;17.25;13.03;;;;;;;18.59;86.12;96004.48;1679752;84;21584;-82
2021/09/17 01:44:05;;;;;;;26.30;18.35;;;;;;;18.56;86.32;96010.23;1685919;83;21110;-82
2021/09/17 01:46:31;;;;;;;28.12;22.42;;;;;;;18.54;86.55;96009.65;1695859;83;21040;-82
2021/09/17 01:48:57;;;;;;;9.70;8.15;;;;;;;18.51;86.72;96018.55;1707538;83;20987;-83
2021/09/17 01:51:23;;;;;;;11.40;8.90;;;;;;;18.37;86.49;96015.44;1636746;86;21064;-83
2021/09/17 01:53:48;;;;;;;8.73;7.33;;;;;;;18.25;86.77;96018.69;1663930;84;21013;-83
2021/09/17 01:56:15;;;;;;;7.53;6.12;;;;;;;18.17;87.15;96011.97;1661474;85;21399;-83
2021/09/17 01:58:40;;;;;;;4.65;3.85;;;;;;;18.11;87.55;96010.83;1677597;84;21449;-83
2021/09/17 02:01:07;;;;;;;4.15;3.33;;;;;;;18.01;87.61;96016.70;1681662;84;21034;-83
2021/09/17 02:03:33;;;;;;;5.75;2.60;;;;;;;17.91;88.15;96005.50;1662492;84;21036;-83
2021/09/17 02:05:59;;;;;;;2.85;1.90;;;;;;;17.80;88.29;96006.35;1668164;85;21079;-83
2021/09/17 02:08:24;;;;;;;2.85;2.02;;;;;;;17.75;88.20;96013.36;1681210;84;21019;-83
2021/09/17 02:10:50;;;;;;;2.80;1.80;;;;;;;17.74;88.41;96007.30;1688840;84;21478;-83
2021/09/17 02:13:19;;;;;;;2.80;1.10;;;;;;;17.78;88.59;96007.63;1682293;84;20999;-83
2021/09/17 02:15:44;;;;;;;1.17;0.88;;;;;;;17.78;88.47;96008.42;1695165;84;21050;-83
2021/09/17 02:18:10;;;;;;;2.98;1.87;;;;;;;17.77;88.60;96005.52;1679575;84;21078;-83
2021/09/17 02:20:35;;;;;;;1.90;1.50;;;;;;;17.75;88.69;96007.59;1684787;84;21548;-83
2021/09/17 02:23:01;;;;;;;2.22;1.12;;;;;;;17.76;88.97;96001.81;1679967;84;21074;-83
2021/09/17 02:25:27;;;;;;;3.08;2.70;;;;;;;17.76;88.78;95993.41;1659618;85;21176;-83
2021/09/17 02:27:53;;;;;;;3.25;2.95;;;;;;;17.75;88.76;95996.28;1673102;85;21060;-83
2021/09/17 02:30:19;;;;;;;6.10;3.80;;;;;;;17.72;88.66;95997.52;1686432;85;21537;-83
2021/09/17 02:32:45;;;;;;;5.62;5.03;;;;;;;17.67;88.63;95995.58;1701790;84;21000;-83
2021/09/17 02:35:11;;;;;;;7.65;6.83;;;;;;;17.70;88.83;95995.65;1699474;84;21383;-83
2021/09/17 02:37:38;;;;;;;8.65;7.85;;;;;;;17.70;88.64;95994.33;1671223;84;21023;-83
2021/09/17 02:40:05;;;;;;;9.35;8.10;;;;;;;17.61;87.95;95998.36;1678463;83;21165;-83
2021/09/17 02:42:30;;;;;;;11.20;9.83;;;;;;;17.52;87.78;96002.38;1693700;84;20998;-82
2021/09/17 02:44:56;;;;;;;12.33;11.12;;;;;;;17.39;87.50;96000.81;1683584;84;21032;-83
2021/09/17 02:47:22;;;;;;;12.88;11.57;;;;;;;17.28;87.43;95998.53;1676937;84;21043;-83
2021/09/17 02:49:48;;;;;;;15.30;13.58;;;;;;;17.14;87.33;96002.44;1673284;84;21009;-83
2021/09/17 02:52:14;;;;;;;18.25;15.75;;;;;;;16.95;87.54;96004.42;1651551;85;21072;-83
2021/09/17 02:54:39;;;;;;;15.63;13.95;;;;;;;16.78;87.16;96002.22;1675207;84;21144;-83
2021/09/17 02:57:06;;;;;;;18.02;15.25;;;;;;;16.69;87.66;96001.75;1668049;85;21083;-83
2021/09/17 02:59:31;;;;;;;16.77;15.03;;;;;;;16.62;87.88;96008.92;1682878;84;21039;-83
2021/09/17 03:01:58;;;;;;;15.40;13.40;;;;;;;16.60;88.04;96010.18;1698099;83;21008;-83
2021/09/17 03:04:23;;;;;;;18.05;15.83;;;;;;;16.55;88.06;96012.16;1707026;83;21039;-83
2021/09/17 03:06:49;;;;;;;16.42;14.28;;;;;;;16.48;88.09;96014.90;1682445;84;21111;-83
2021/09/17 03:09:15;;;;;;;14.93;13.15;;;;;;;16.46;88.17;96009.09;1673594;84;21541;-83
2021/09/17 03:11:41;;;;;;;16.10;14.40;;;;;;;16.36;88.16;96011.46;1675228;84;21011;-83
2021/09/17 03:14:06;;;;;;;15.15;13.53;;;;;;;16.30;88.27;96016.83;1681923;84;21039;-83
2021/09/17 03:16:32;;;;;;;15.20;13.60;;;;;;;16.30;88.48;96019.45;1666772;84;21023;-83
2021/09/17 03:18:58;;;;;;;14.40;12.90;;;;;;;16.30;88.38;96016.83;1686376;84;21114;-82
2021/09/17 03:21:24;;;;;;;15.35;13.75;;;;;;;16.29;88.72;96013.41;1679838;85;21029;-83
2021/09/17 03:23:50;;;;;;;15.85;14.25;;;;;;;16.24;88.43;96011.16;1680546;84;21089;-83
2021/09/17 03:26:16;;;;;;;18.20;14.80;;;;;;;16.21;88.47;96019.76;1708412;83;21036;-83
2021/09/17 03:28:41;;;;;;;17.45;15.65;;;;;;;16.21;88.50;96017.65;1681357;84;21366;-83
2021/09/17 03:31:07;;;;;;;15.38;13.88;;;;;;;16.16;88.19;96024.89;1686326;84;21142;-83
2021/09/17 03:33:33;;;;;;;15.63;14.05;;;;;;;16.10;88.04;96019.22;1697835;83;21389;-83
2021/09/17 03:35:59;;;;;;;15.88;14.35;;;;;;;16.06;88.41;96018.08;1712011;83;21067;-83
2021/09/17 03:38:25;;;;;;;15.38;13.88;;;;;;;16.07;88.60;96020.18;1692148;83;20992;-83
2021/09/17 03:40:50;;;;;;;14.13;12.40;;;;;;;16.07;88.79;96025.42;1718413;83;21047;-83
2021/09/17 03:43:16;;;;;;;13.88;12.43;;;;;;;16.07;88.85;96023.60;1708382;83;21398;-83
2021/09/17 03:45:42;;;;;;;14.25;12.75;;;;;;;16.07;88.50;96026.22;1678094;84;21035;-84
2021/09/17 03:48:10;;;;;;;12.73;11.50;;;;;;;16.05;88.68;96022.23;1661375;84;21013;-83
2021/09/17 03:50:37;;;;;;;14.73;12.30;;;;;;;16.05;88.73;96031.41;1689411;84;21012;-83
2021/09/17 03:53:03;;;;;;;11.00;9.90;;;;;;;16.02;88.50;96031.34;1706147;83;21294;-83
2021/09/17 03:55:28;;;;;;;12.75;11.22;;;;;;;16.02;88.56;96035.79;1708966;83;21051;-83
2021/09/17 03:57:55;;;;;;;11.43;10.32;;;;;;;16.04;88.48;96035.05;1708579;83;21046;-83
2021/09/17 04:00:21;;;;;;;12.18;11.00;;;;;;;16.05;88.58;96037.95;1707516;84;21071;-83
2021/09/17 04:02:46;;;;;;;10.88;9.48;;;;;;;16.08;88.83;96035.68;1685942;84;21014;-83
2021/09/17 04:05:13;;;;;;;9.33;8.43;;;;;;;16.10;88.96;96038.08;1668099;84;21040;-83
2021/09/17 04:07:42;;;;;;;9.30;8.40;;;;;;;16.07;88.71;96039.33;1678128;84;21076;-83
2021/09/17 04:10:12;;;;;;;6.37;4.85;;;;;;;16.06;88.84;96038.24;1691159;84;21450;-83
2021/09/17 04:12:38;;;;;;;4.53;4.12;;;;;;;16.01;88.59;96040.23;1684455;84;21098;-83
2021/09/17 04:15:05;;;;;;;4.22;3.83;;;;;;;15.97;88.51;96044.84;1679558;84;21099;-83
2021/09/17 04:17:31;;;;;;;3.50;3.20;;;;;;;15.95;88.64;96037.72;1687032;84;21473;-83
2021/09/17 04:19:56;;;;;;;3.37;3.05;;;;;;;15.91;88.67;96043.38;1678835;84;21085;-83
2021/09/17 04:22:22;;;;;;;4.08;2.75;;;;;;;15.85;88.48;96039.55;1672398;84;21413;-83
2021/09/17 04:24:48;;;;;;;4.08;3.00;;;;;;;15.78;88.56;96044.07;1676189;84;21106;-83
2021/09/17 04:27:14;;;;;;;3.47;3.17;;;;;;;15.69;88.72;96046.73;1676814;84;21451;-83
2021/09/17 04:29:40;;;;;;;3.42;3.05;;;;;;;15.66;88.98;96047.97;1677111;85;21023;-83
2021/09/17 04:32:06;;;;;;;3.40;3.10;;;;;;;15.68;89.24;96049.86;1679109;84;21033;-83
2021/09/17 04:34:33;;;;;;;3.92;3.47;;;;;;;15.59;88.92;96061.64;1672189;84;21044;-83
2021/09/17 04:36:58;;;;;;;3.67;3.37;;;;;;;15.52;89.04;96060.40;1697841;83;21023;-83
2021/09/17 04:39:24;;;;;;;5.00;4.55;;;;;;;15.53;89.45;96059.88;1666689;84;21452;-82
2021/09/17 04:41:50;;;;;;;5.35;4.83;;;;;;;15.48;89.17;96057.94;1648603;86;21152;-83
2021/09/17 04:44:16;;;;;;;6.22;5.67;;;;;;;15.45;89.35;96058.34;1696356;84;20988;-83
2021/09/17 04:46:41;;;;;;;6.22;5.72;;;;;;;15.45;89.47;96059.66;1671199;84;21094;-83
2021/09/17 04:49:07;;;;;;;6.67;6.08;;;;;;;15.40;89.46;96058.22;1684509;84;21054;-83
2021/09/17 04:51:33;;;;;;;6.53;5.87;;;;;;;15.33;89.47;96065.88;1680728;84;21445;-83
2021/09/17 04:53:59;;;;;;;6.12;5.62;;;;;;;15.25;89.54;96073.49;1680195;85;21093;-84
2021/09/17 04:56:24;;;;;;;5.20;4.70;;;;;;;15.18;89.73;96068.34;1704880;83;21096;-83
2021/09/17 04:58:50;;;;;;;5.90;5.40;;;;;;;15.18;90.18;96074.88;1688516;84;21115;-83
2021/09/17 05:01:16;;;;;;;5.53;5.03;;;;;;;15.16;89.86;96072.20;1693787;84;21039;-83
2021/09/17 05:03:43;;;;;;;5.37;4.87;;;;;;;15.17;89.97;96077.20;1659432;84;21021;-82
2021/09/17 05:06:10;;;;;;;5.17;4.70;;;;;;;15.20;90.44;96072.84;1670539;84;21067;-83
2021/09/17 05:08:36;;;;;;;4.42;4.03;;;;;;;15.17;89.95;96084.27;1677433;84;21100;-83
2021/09/17 05:11:02;;;;;;;4.47;4.03;;;;;;;15.13;90.18;96080.45;1694478;84;21060;-82
2021/09/17 05:13:29;;;;;;;4.55;4.15;;;;;;;15.12;90.16;96083.58;1692846;84;21022;-83
2021/09/17 05:15:55;;;;;;;3.83;3.52;;;;;;;15.16;90.31;96077.43;1698002;83;21453;-83
2021/09/17 05:18:20;;;;;;;4.20;3.80;;;;;;;15.20;90.16;96081.20;1661833;84;21016;-83
2021/09/17 05:20:46;;;;;;;4.42;3.80;;;;;;;15.16;90.05;96080.05;1688601;83;21031;-83
2021/09/17 05:23:12;;;;;;;4.10;3.80;;;;;;;15.12;89.85;96077.55;1695168;83;21049;-83
2021/09/17 05:25:38;;;;;;;3.83;3.37;;;;;;;15.10;90.31;96076.47;1693610;83;21429;-83
2021/09/17 05:28:04;;;;;;;3.47;3.17;;;;;;;15.11;90.16;96077.27;1689203;84;21029;-82
2021/09/17 05:30:30;;;;;;;3.75;3.45;;;;;;;15.09;89.88;96084.53;1671122;85;21119;-82
2021/09/17 05:32:56;;;;;;;4.65;3.10;;;;;;;15.10;90.17;96084.82;1680124;84;21409;-83
2021/09/17 05:35:22;;;;;;;3.50;3.20;;;;;;;15.13;89.97;96087.00;1683154;84;21033;-83
2021/09/17 05:37:48;;;;;;;4.22;3.58;;;;;;;15.11;89.85;96079.37;1692735;84;21358;-83
2021/09/17 05:40:14;;;;;;;3.40;3.10;;;;;;;15.11;89.97;96081.98;1699847;84;21150;-83
2021/09/17 05:42:40;;;;;;;4.60;4.20;;;;;;;15.10;89.84;96087.44;1692446;84;21032;-83
2021/09/17 05:45:07;;;;;;;4.95;4.55;;;;;;;14.98;89.92;96090.79;1686049;84;21030;-83
2021/09/17 05:47:32;;;;;;;5.10;4.70;;;;;;;14.86;89.52;96103.48;1671340;84;21070;-83
2021/09/17 05:49:58;;;;;;;5.92;5.42;;;;;;;14.76;89.60;96108.38;1693993;84;21502;-83
2021/09/17 05:52:24;;;;;;;5.67;5.17;;;;;;;14.69;89.47;96107.94;1687366;84;21058;-83
2021/09/17 05:54:50;;;;;;;3.95;3.60;;;;;;;14.68;90.03;96108.16;1645040;85;21039;-83
2021/09/17 05:57:15;;;;;;;3.22;2.20;;;;;;;14.69;89.85;96110.55;1676920;84;21018;-82
2021/09/17 05:59:42;;;;;;;2.50;2.22;;;;;;;14.68;89.24;96110.27;1691514;84;21432;-82
2021/09/17 06:02:08;;;;;;;2.75;2.42;;;;;;;14.66;89.12;96108.88;1697764;84;21098;-82
2021/09/17 06:04:35;;;;;;;2.30;2.10;;;;;;;14.57;89.02;96111.45;1703094;83;21077;-83
2021/09/17 06:07:01;;;;;;;6.65;2.27;;;;;;;14.53;89.05;96109.78;1676645;84;21033;-83
2021/09/17 06:09:27;;;;;;;1.90;1.70;;;;;;;14.51;89.13;96113.63;1686211;84;21142;-83
2021/09/17 06:11:53;;;;;;;1.62;1.35;;;;;;;14.53;88.93;96120.23;1707457;83;21060;-82
2021/09/17 06:14:19;;;;;;;1.85;1.40;;;;;;;14.47;88.33;96121.06;1682995;84;21547;-83
2021/09/17 06:16:44;;;;;;;2.02;1.10;;;;;;;14.43;88.53;96123.78;1685652;83;21567;-82
2021/09/17 06:19:10;;;;;;;2.08;1.62;;;;;;;14.40;88.41;96119.79;1676064;84;20987;-82
2021/09/17 06:21:36;;;;;;;3.75;1.70;;;;;;;14.40;88.83;96122.40;1672561;84;21446;-83
2021/09/17 06:24:02;;;;;;;3.05;1.85;;;;;;;14.41;88.77;96123.20;1704495;83;21059;-83
2021/09/17 06:26:31;;;;;;;2.45;1.70;;;;;;;14.41;89.09;96124.51;1699491;83;21366;-83
2021/09/17 06:28:58;;;;;;;2.20;2.00;;;;;;;14.41;88.89;96117.47;1658990;85;21059;-83
2021/09/17 06:31:24;;;;;;;2.33;2.05;;;;;;;14.38;88.65;96126.24;1671824;85;21021;-82
2021/09/17 06:33:50;;;;;;;3.30;2.60;;;;;;;14.35;88.39;96131.39;1690896;83;21015;-83
2021/09/17 06:36:16;;;;;;;3.52;3.22;;;;;;;14.36;88.85;96130.88;1700110;84;21055;-82
2021/09/17 06:38:42;;;;;;;3.83;2.92;;;;;;;14.35;88.82;96131.90;1666667;84;21360;-83
2021/09/17 06:41:08;;;;;;;3.17;2.85;;;;;;;14.28;88.61;96137.66;1655395;85;21001;-82
2021/09/17 06:43:33;;;;;;;4.25;2.70;;;;;;;14.27;89.03;96136.86;1663013;84;21080;-82
2021/09/17 06:45:59;;;;;;;3.75;2.83;;;;;;;14.27;89.00;96132.13;1676133;85;21087;-83
2021/09/17 06:48:25;;;;;;;3.87;2.83;;;;;;;14.30;88.77;96136.42;1677997;84;21011;-83
2021/09/17 06:50:51;;;;;;;3.22;2.92;;;;;;;14.30;88.75;96139.05;1681106;84;21011;-82
2021/09/17 06:53:17;;;;;;;3.55;3.25;;;;;;;14.30;88.72;96137.73;1654594;85;21077;-82
2021/09/17 06:55:42;;;;;;;3.70;3.40;;;;;;;14.25;88.75;96136.77;1669332;84;21115;-82
2021/09/17 06:58:08;;;;;;;3.37;2.92;;;;;;;14.25;89.01;96136.77;1682438;84;21055;-83
2021/09/17 07:00:37;;;;;;;3.85;3.50;;;;;;;14.22;88.82;96144.53;1685978;84;21020;-82
2021/09/17 07:03:03;;;;;;;2.75;2.47;;;;;;;14.18;88.51;96137.33;1674469;84;20977;-82
2021/09/17 07:05:30;;;;;;;2.95;2.42;;;;;;;14.19;88.86;96137.13;1675773;84;21093;-82
2021/09/17 07:08:05;;;;;;;2.33;2.10;;;;;;;14.23;88.85;96138.30;1688990;84;21051;-82
2021/09/17 07:10:31;;;;;;;3.60;2.30;;;;;;;14.29;88.68;96140.56;1709704;83;21485;-82
2021/09/17 07:12:57;;;;;;;3.10;2.80;;;;;;;14.25;88.43;96141.49;1708174;83;21026;-82
2021/09/17 07:15:24;;;;;;;3.02;2.27;;;;;;;14.26;88.54;96145.70;1708122;83;21061;-82
2021/09/17 07:17:51;;;;;;;2.87;2.50;;;;;;;14.20;88.12;96141.84;1697953;83;21048;-82
2021/09/17 07:20:17;;;;;;;2.75;2.12;;;;;;;14.20;88.73;96145.76;1653495;84;21086;-82
2021/09/17 07:22:43;;;;;;;2.27;2.00;;;;;;;14.21;88.52;96144.74;1667003;84;21066;-82
2021/09/17 07:25:09;;;;;;;3.67;2.12;;;;;;;14.19;88.50;96141.55;1672397;84;21007;-83
2021/09/17 07:27:35;;;;;;;3.90;2.20;;;;;;;14.22;88.92;96145.84;1698846;84;21074;-82
2021/09/17 07:30:00;;;;;;;2.75;2.52;;;;;;;14.30;89.03;96152.11;1687515;83;21013;-83
2021/09/17 07:32:26;;;;;;;2.95;2.52;;;;;;;14.35;88.98;96152.81;1695430;83;21111;-82
2021/09/17 07:34:53;;;;;;;3.87;2.60;;;;;;;14.36;88.24;96153.10;1699517;83;21105;-82
2021/09/17 07:37:23;;;;;;;3.65;2.50;;;;;;;14.34;88.46;96154.63;1709108;83;21088;-82
2021/09/17 07:39:49;;;;;;;3.77;2.35;;;;;;;14.28;88.22;96152.83;1701453;83;21067;-82
2021/09/17 07:42:15;;;;;;;3.35;2.42;;;;;;;14.33;88.59;96162.17;1686934;83;20952;-82
2021/09/17 07:44:41;;;;;;;3.27;2.25;;;;;;;14.38;88.87;96164.94;1680995;84;21009;-82
2021/09/17 07:47:07;;;;;;;2.87;2.10;;;;;;;14.45;88.91;96163.61;1686586;83;21031;-82
2021/09/17 07:49:33;;;;;;;3.22;2.70;;;;;;;14.47;88.22;96162.09;1653586;84;21004;-82
2021/09/17 07:51:59;;;;;;;4.30;2.52;;;;;;;14.48;87.95;96168.45;1681126;84;21080;-82
2021/09/17 07:54:24;;;;;;;2.50;2.10;;;;;;;14.41;87.59;96163.20;1643967;86;21008;-82
2021/09/17 07:56:52;;;;;;;4.05;2.42;;;;;;;14.34;87.66;96167.69;1684952;84;21050;-82
2021/09/17 07:59:18;;;;;;;2.35;2.15;;;;;;;14.38;88.08;96162.33;1691432;84;21151;-83
2021/09/17 08:01:43;;;;;;;2.83;1.82;;;;;;;14.39;88.24;96169.66;1669234;84;21445;-82
2021/09/17 08:04:09;;;;;;;2.12;1.85;;;;;;;14.38;87.61;96171.48;1664045;84;21086;-83
2021/09/17 08:06:35;;;;;;;2.12;1.55;;;;;;;14.34;87.98;96170.30;1690024;84;21172;-82
2021/09/17 08:09:01;;;;;;;3.45;1.87;;;;;;;14.37;88.03;96173.80;1690841;84;21118;-82
2021/09/17 08:11:27;;;;;;;2.33;1.95;;;;;;;14.41;88.34;96172.36;1658094;84;21431;-83
2021/09/17 08:13:52;;;;;;;2.50;1.80;;;;;;;14.45;88.11;96170.66;1703782;84;21099;-82
2021/09/17 08:16:19;;;;;;;3.95;1.80;;;;;;;14.46;87.96;96166.52;1688542;83;21094;-82
2021/09/17 08:18:45;;;;;;;1.75;1.55;;;;;;;14.48;88.09;96167.14;1689606;84;21029;-83
2021/09/17 08:21:12;;;;;;;1.80;1.50;;;;;;;14.52;87.89;96165.70;1679336;84;21074;-82
2021/09/17 08:23:38;;;;;;;2.22;1.47;;;;;;;14.55;87.72;96166.58;1675551;84;21012;-82
2021/09/17 08:26:06;;;;;;;2.72;1.87;;;;;;;14.60;87.57;96168.55;1682043;84;21056;-82
2021/09/17 08:28:31;;;;;;;2.90;1.50;;;;;;;14.63;87.76;96168.92;1651491;85;21059;-82
2021/09/17 08:30:59;;;;;;;1.85;1.60;;;;;;;14.67;87.99;96168.81;1664014;85;21027;-82
2021/09/17 08:33:25;;;;;;;3.08;1.70;;;;;;;14.64;87.42;96169.72;1687415;84;20979;-82
2021/09/17 08:35:51;;;;;;;1.90;1.30;;;;;;;14.67;87.81;96171.42;1667519;84;21031;-82
2021/09/17 08:38:17;;;;;;;2.77;1.70;;;;;;;14.69;87.42;96169.91;1679446;84;21103;-82
2021/09/17 08:40:43;;;;;;;1.70;1.27;;;;;;;14.74;87.64;96169.26;1683162;84;21200;-82
2021/09/17 08:43:09;;;;;;;3.17;1.70;;;;;;;14.79;87.82;96170.72;1673758;84;21433;-82
2021/09/17 08:45:34;;;;;;;4.08;1.50;;;;;;;14.85;87.78;96167.27;1663860;85;21075;-82
2021/09/17 08:48:01;;;;;;;1.62;1.30;;;;;;;14.92;87.82;96172.73;1698139;84;21146;-82
2021/09/17 08:50:27;;;;;;;1.37;1.02;;;;;;;14.87;87.12;96166.55;1688917;84;21597;-82
2021/09/17 08:52:53;;;;;;;1.30;1.02;;;;;;;14.86;86.90;96169.67;1697993;84;21079;-82
2021/09/17 08:55:19;;;;;;;1.62;1.20;;;;;;;14.89;86.93;96171.86;1679188;84;21112;-82
2021/09/17 08:57:46;;;;;;;1.98;1.20;;;;;;;14.89;86.79;96170.55;1675609;84;21085;-82
2021/09/17 09:00:30;;;;;;;2.70;1.07;;;;;;;14.92;86.84;96174.55;1664511;85;21392;-82
2021/09/17 09:02:57;;;;;;;1.55;1.12;;;;;;;14.91;86.01;96167.72;1681602;84;21532;-82
2021/09/17 09:05:29;;;;;;;3.00;1.12;;;;;;;14.88;85.94;96164.22;1680964;84;21105;-82
2021/09/17 09:07:55;;;;;;;2.42;1.20;;;;;;;14.94;86.59;96166.77;1701637;84;21097;-82
2021/09/17 09:10:21;;;;;;;1.92;0.90;;;;;;;14.92;86.12;96167.50;1662246;85;21072;-82
2021/09/17 09:12:55;;;;;;;1.87;1.10;;;;;;;14.93;86.25;96172.22;1698011;84;21076;-82
2021/09/17 09:15:30;;;;;;;2.10;1.15;;;;;;;14.99;86.28;96168.77;1668930;84;21041;-82
2021/09/17 09:18:03;;;;;;;1.40;1.20;;;;;;;15.05;86.06;96167.91;1682215;84;21039;-82
2021/09/17 09:20:32;;;;;;;1.80;1.20;;;;;;;15.05;86.27;96165.80;1688377;84;21028;-82
2021/09/17 09:23:22;;;;;;;1.92;1.07;;;;;;;15.04;85.39;96168.12;1676421;84;21048;-82
2021/09/17 09:26:01;;;;;;;1.42;0.88;;;;;;;15.00;85.57;96169.86;1669948;84;21130;-82
2021/09/17 09:28:34;;;;;;;1.75;1.02;;;;;;;14.99;85.06;96167.46;1679148;84;21124;-82
2021/09/17 09:31:09;;;;;;;1.57;1.00;;;;;;;14.97;85.20;96162.45;1671931;85;21061;-82
2021/09/17 09:33:46;;;;;;;2.08;1.20;;;;;;;15.00;85.74;96162.02;1681585;84;21043;-82
2021/09/17 09:36:16;;;;;;;1.40;1.25;;;;;;;15.04;85.43;96160.27;1687762;84;21106;-82
2021/09/17 09:38:48;;;;;;;1.52;1.00;;;;;;;15.02;85.85;96153.95;1690132;84;21003;-82
2021/09/17 09:41:20;;;;;;;;;;;;;;;15.05;85.56;96160.56;1677432;84;21110;-82
2021/09/17 09:43:53;;;;;;;2.00;1.40;;;;;;;14.96;84.61;96154.27;1679078;84;20130;-82
2021/09/17 09:46:27;;;;;;;3.08;1.32;;;;;;;14.96;85.46;96162.63;1676811;84;21101;-82
2021/09/17 09:49:29;;;;;;;2.17;1.85;;;;;;;14.88;85.63;96158.48;1650295;84;21406;-82
2021/09/17 09:51:58;;;;;;;3.00;2.08;;;;;;;14.89;85.40;96156.67;1683225;84;21007;-82
2021/09/17 09:54:28;;;;;;;2.58;1.32;;;;;;;14.96;85.73;96154.27;1706774;83;21063;-82
2021/09/17 09:56:55;;;;;;;2.95;2.55;;;;;;;14.96;85.68;96161.33;1693560;83;21055;-82
2021/09/17 09:59:31;;;;;;;3.22;2.00;;;;;;;14.84;84.98;96159.93;1713404;83;20940;-82
2021/09/17 10:02:00;;;;;;;3.35;3.05;;;;;;;14.87;85.90;96162.12;1672575;84;21326;-82
2021/09/17 10:04:29;;;;;;;3.83;3.42;;;;;;;14.88;85.97;96158.48;1682714;84;21071;-82
2021/09/17 10:07:04;;;;;;;5.10;4.10;;;;;;;14.91;86.14;96159.36;1664060;85;21385;-82
2021/09/17 10:09:32;;;;;;;4.78;4.15;;;;;;;15.03;86.15;96162.09;1696908;84;20992;-82
2021/09/17 10:12:01;;;;;;;4.97;4.58;;;;;;;15.12;85.81;96157.36;1711430;83;21033;-82
2021/09/17 10:14:28;;;;;;;4.10;3.70;;;;;;;15.18;86.06;96157.33;1673141;84;21108;-82
2021/09/17 10:16:55;;;;;;;4.92;4.45;;;;;;;15.23;85.43;96155.36;1696809;84;21149;-82
2021/09/17 10:19:21;;;;;;;4.55;4.15;;;;;;;15.27;85.31;96152.08;1689947;83;21059;-82
2021/09/17 10:21:52;;;;;;;4.78;4.10;;;;;;;15.29;85.47;96147.94;1685386;83;21063;-82
2021/09/17 10:24:38;;;;;;;4.05;3.62;;;;;;;15.38;86.07;96147.96;1707256;83;21110;-82
2021/09/17 10:27:14;;;;;;;5.37;4.87;;;;;;;15.49;86.27;96146.45;1707491;83;21405;-82
2021/09/17 10:29:43;;;;;;;5.08;4.58;;;;;;;15.53;85.22;96139.24;1708579;83;21446;-82
2021/09/17 10:32:29;;;;;;;4.95;3.85;;;;;;;15.58;85.55;96138.58;1708218;83;21094;-82
2021/09/17 10:35:27;;;;;;;4.75;4.25;;;;;;;15.63;85.38;96141.91;1702674;83;21158;-82
2021/09/17 10:38:05;;;;;;;5.08;4.62;;;;;;;15.55;85.12;96135.89;1689381;83;21029;-82
2021/09/17 10:40:55;;;;;;;6.25;5.65;;;;;;;15.63;85.54;96133.53;1663129;86;21410;-82
2021/09/17 10:43:40;;;;;;;7.30;6.33;;;;;;;15.74;86.33;96136.70;1702299;83;21396;-82
2021/09/17 10:46:23;;;;;;;9.13;7.30;;;;;;;15.76;85.26;96131.25;1703654;84;21003;-82
2021/09/17 10:48:53;;;;;;;7.08;6.35;;;;;;;15.82;84.43;96126.45;1674890;84;21063;-82
2021/09/17 10:51:39;;;;;;;6.83;6.22;;;;;;;15.87;84.73;96123.45;1646227;86;21009;-82
2021/09/17 10:54:19;;;;;;;7.30;6.58;;;;;;;15.96;85.82;96128.41;1678322;85;21079;-82
2021/09/17 10:57:01;;;;;;;7.10;6.15;;;;;;;15.96;84.54;96127.09;1702725;84;21094;-82
2021/09/17 10:59:39;;;;;;;8.55;7.72;;;;;;;16.01;85.16;96125.91;1680676;84;21094;-82
2021/09/17 11:02:06;;;;;;;10.05;9.05;;;;;;;16.00;84.61;96130.86;1663389;84;20984;-82
2021/09/17 11:04:36;;;;;;;10.90;9.75;;;;;;;15.90;84.15;96130.06;1698484;84;21146;-82
2021/09/17 11:07:29;;;;;;;9.35;8.45;;;;;;;15.87;84.21;96126.08;1636807;85;21046;-82
2021/09/17 11:09:55;;;;;;;9.37;8.37;;;;;;;15.83;83.78;96124.92;1707001;84;21094;-82
2021/09/17 11:12:33;;;;;;;7.95;7.15;;;;;;;15.88;85.07;96126.88;1696479;83;21014;-82
2021/09/17 11:15:10;;;;;;;9.38;8.48;;;;;;;15.93;85.16;96127.52;1654034;84;21011;-82
2021/09/17 11:17:50;;;;;;;9.43;8.53;;;;;;;15.93;84.72;96125.69;1701823;84;21453;-82
2021/09/17 11:20:22;;;;;;;11.18;9.23;;;;;;;15.95;84.63;96127.61;1683197;84;21020;-82
2021/09/17 11:23:08;;;;;;;10.68;9.48;;;;;;;15.99;85.39;96123.52;1689816;84;21097;-82
2021/09/17 11:25:43;;;;;;;10.00;8.95;;;;;;;16.03;85.11;96124.66;1684901;84;21051;-82
2021/09/17 11:28:30;;;;;;;11.40;10.20;;;;;;;16.06;84.96;96124.22;1668442;84;21063;-82
2021/09/17 11:31:17;;;;;;;10.58;9.58;;;;;;;16.05;84.62;96129.17;1670836;84;21030;-82
2021/09/17 11:33:42;;;;;;;11.22;10.15;;;;;;;16.07;84.24;96127.13;1678839;84;21087;-82